createdAt,value
2022-10-09T00:04:23.819Z,99.90
2022-10-09T00:09:27.082Z,99.90
2022-10-09T00:14:31.722Z,99.90
2022-10-09T00:19:35.088Z,99.90
2022-10-09T00:24:38.455Z,99.90
2022-10-09T00:29:43.170Z,99.90
2022-10-09T00:34:46.687Z,99.90
2022-10-09T00:39:49.965Z,99.90
2022-10-09T00:44:59.992Z,99.90
2022-10-09T00:50:07.645Z,99.90
2022-10-09T00:55:11.406Z,99.90
2022-10-09T01:00:16.858Z,99.90
2022-10-09T01:05:20.892Z,99.90
2022-10-09T01:10:31.523Z,99.90
2022-10-09T01:15:43.776Z,99.90
2022-10-09T01:20:50.986Z,99.90
2022-10-09T01:26:05.890Z,99.90
2022-10-09T01:31:11.959Z,99.90
2022-10-09T01:36:17.541Z,99.90
2022-10-09T01:41:21.970Z,99.90
2022-10-09T01:46:30.534Z,99.90
2022-10-09T01:51:41.964Z,99.90
2022-10-09T01:56:49.153Z,99.90
2022-10-09T02:01:54.442Z,99.90
2022-10-09T02:06:58.150Z,99.90
2022-10-09T02:12:07.750Z,99.90
2022-10-09T02:17:17.179Z,99.90
2022-10-09T02:22:24.246Z,99.90
2022-10-09T02:27:28.897Z,99.90
2022-10-09T02:32:33.525Z,99.90
2022-10-09T02:37:36.836Z,99.90
2022-10-09T02:42:40.110Z,99.90
2022-10-09T02:47:44.760Z,99.90
2022-10-09T02:52:48.283Z,99.90
2022-10-09T03:02:57.446Z,99.90
2022-10-09T03:08:00.728Z,99.90
2022-10-09T03:13:03.980Z,99.90
2022-10-09T03:18:08.614Z,99.90
2022-10-09T03:23:11.898Z,99.90
2022-10-09T03:28:15.231Z,99.90
2022-10-09T03:33:20.063Z,99.90
2022-10-09T03:38:23.344Z,99.90
2022-10-09T03:43:26.869Z,99.90
2022-10-09T03:48:31.569Z,99.90
2022-10-09T03:53:34.872Z,99.90
2022-10-09T03:58:38.166Z,99.90
2022-10-09T04:03:42.818Z,99.90
2022-10-09T04:08:46.068Z,99.90
2022-10-09T04:13:49.450Z,99.90
2022-10-09T04:18:54.173Z,99.90
2022-10-09T04:23:57.443Z,99.90
2022-10-09T04:29:00.690Z,99.90
2022-10-09T04:34:05.500Z,99.90
2022-10-09T04:39:08.807Z,99.90
2022-10-09T04:44:12.077Z,99.90
2022-10-09T04:49:16.761Z,99.90
2022-10-09T04:54:20.045Z,99.90
2022-10-09T04:59:23.368Z,99.90
2022-10-09T05:04:28.042Z,99.90
2022-10-09T05:09:31.334Z,99.90
2022-10-09T05:14:34.583Z,99.90
2022-10-09T05:24:42.734Z,99.90
2022-10-09T05:29:45.978Z,99.90
2022-10-09T05:34:50.681Z,99.90
2022-10-09T05:39:53.948Z,99.90
2022-10-09T05:44:57.517Z,99.90
2022-10-09T05:50:02.196Z,99.90
2022-10-09T05:55:06.068Z,99.90
2022-10-09T06:00:10.682Z,99.90
2022-10-09T06:05:17.339Z,99.90
2022-10-09T06:10:20.690Z,99.90
2022-10-09T06:15:23.951Z,99.90
2022-10-09T06:20:28.625Z,99.90
2022-10-09T06:25:31.910Z,99.90
2022-10-09T06:30:38.681Z,99.90
2022-10-09T06:35:43.812Z,99.90
2022-10-09T06:40:47.076Z,99.90
2022-10-09T06:45:50.400Z,99.90
2022-10-09T06:50:55.048Z,99.90
2022-10-09T06:55:59.580Z,99.90
2022-10-09T07:01:07.486Z,99.90
2022-10-09T07:06:13.675Z,99.90
2022-10-09T07:11:20.986Z,99.90
2022-10-09T07:16:26.264Z,99.90
2022-10-09T07:21:31.632Z,99.90
2022-10-09T07:26:36.769Z,99.90
2022-10-09T07:31:40.273Z,99.90
2022-10-09T07:36:44.889Z,99.90
2022-10-09T07:41:50.548Z,99.90
2022-10-09T07:46:53.783Z,99.90
2022-10-09T07:51:58.409Z,99.90
2022-10-09T07:57:01.679Z,99.90
2022-10-09T08:02:05.055Z,99.90
2022-10-09T08:07:09.782Z,99.90
2022-10-09T08:12:13.060Z,99.90
2022-10-09T08:17:16.527Z,99.90
2022-10-09T08:22:21.154Z,99.90
2022-10-09T08:27:24.541Z,99.90
2022-10-09T08:32:27.781Z,99.90
2022-10-09T08:37:32.377Z,99.90
2022-10-09T08:42:41.969Z,99.90
2022-10-09T08:47:48.671Z,99.90
2022-10-09T08:52:58.661Z,99.90
2022-10-09T08:58:05.381Z,99.90
2022-10-09T09:03:36.593Z,99.90
2022-10-09T09:08:49.710Z,99.90
2022-10-09T09:14:04.065Z,99.90
2022-10-09T09:19:40.667Z,99.90
2022-10-09T09:24:49.668Z,99.90
2022-10-09T09:29:58.851Z,99.90
2022-10-09T09:35:14.661Z,98.60
2022-10-09T09:40:40.610Z,99.90
2022-10-09T09:45:44.991Z,99.90
2022-10-09T09:51:10.372Z,99.50
2022-10-09T09:56:18.301Z,99.90
2022-10-09T10:01:25.117Z,99.60
2022-10-09T10:06:32.287Z,99.90
2022-10-09T10:11:36.949Z,95.40
2022-10-09T10:16:41.331Z,96.50
2022-10-09T10:21:49.829Z,94.50
2022-10-09T10:26:59.360Z,93.70
2022-10-09T10:32:11.775Z,92.70
2022-10-09T10:37:29.841Z,91.20
2022-10-09T10:42:41.978Z,91.00
2022-10-09T10:47:51.361Z,92.60
2022-10-09T10:53:04.894Z,91.20
2022-10-09T10:58:27.496Z,86.90
2022-10-09T11:03:53.050Z,87.40
2022-10-09T11:09:06.629Z,90.10
2022-10-09T11:14:25.895Z,89.20
2022-10-09T11:19:56.113Z,84.80
2022-10-09T11:25:11.966Z,82.40
2022-10-09T11:30:18.548Z,83.70
2022-10-09T11:35:23.464Z,82.60
2022-10-09T11:40:31.465Z,86.70
2022-10-09T11:45:44.099Z,88.90
2022-10-09T11:50:56.697Z,88.50
2022-10-09T11:56:04.537Z,87.80
2022-10-09T12:01:20.989Z,88.00
2022-10-09T12:06:24.370Z,87.10
2022-10-09T12:11:29.874Z,89.50
2022-10-09T12:16:41.279Z,88.90
2022-10-09T12:21:51.797Z,89.70
2022-10-09T12:26:57.652Z,89.30
2022-10-09T12:32:06.436Z,90.20
2022-10-09T12:37:15.841Z,90.50
2022-10-09T12:42:22.679Z,91.10
2022-10-09T12:47:30.398Z,90.80
2022-10-09T12:52:34.156Z,90.20
2022-10-09T12:57:37.969Z,91.30
2022-10-09T13:02:43.097Z,91.10
2022-10-09T13:07:53.694Z,90.60
2022-10-09T13:12:59.930Z,90.70
2022-10-09T13:18:14.922Z,90.20
2022-10-09T13:23:29.682Z,90.00
2022-10-09T13:28:33.522Z,90.10
2022-10-09T13:33:38.208Z,90.80
2022-10-09T13:38:42.620Z,91.40
2022-10-09T13:43:46.311Z,91.80
2022-10-09T13:48:52.086Z,91.80
2022-10-09T13:53:55.533Z,92.80
2022-10-09T13:58:58.939Z,92.80
2022-10-09T14:04:03.825Z,93.10
2022-10-09T14:09:07.588Z,93.10
2022-10-09T14:14:11.013Z,93.70
2022-10-09T14:19:15.695Z,93.50
2022-10-09T14:24:19.694Z,94.00
2022-10-09T14:29:22.993Z,93.70
2022-10-09T14:34:27.635Z,95.00
2022-10-09T14:39:31.064Z,94.30
2022-10-09T14:44:34.529Z,94.70
2022-10-09T14:49:39.195Z,94.90
2022-10-09T14:54:42.737Z,95.50
2022-10-09T14:59:46.251Z,95.80
2022-10-09T15:04:50.949Z,96.20
2022-10-09T15:09:54.858Z,96.50
2022-10-09T15:14:58.996Z,96.30
2022-10-09T15:20:03.845Z,97.40
2022-10-09T15:25:08.359Z,98.70
2022-10-09T15:30:12.847Z,98.50
2022-10-09T15:35:17.769Z,98.90
2022-10-09T15:40:21.237Z,99.50
2022-10-09T15:45:24.490Z,99.90
2022-10-09T15:50:29.192Z,99.90
2022-10-09T15:55:32.507Z,99.90
2022-10-09T16:00:37.775Z,99.90
2022-10-09T16:05:44.109Z,99.90
2022-10-09T16:10:49.538Z,99.90
2022-10-09T16:15:53.904Z,99.90
2022-10-09T16:21:04.152Z,99.90
2022-10-09T16:26:07.735Z,99.90
2022-10-09T16:31:18.367Z,99.90
2022-10-09T16:36:22.994Z,99.90
2022-10-09T16:41:27.018Z,99.90
2022-10-09T16:51:37.485Z,99.90
2022-10-09T16:56:41.586Z,99.90
2022-10-09T17:01:46.497Z,99.90
2022-10-09T17:06:52.351Z,99.90
2022-10-09T17:11:55.623Z,99.90
2022-10-09T17:16:58.881Z,99.90
2022-10-09T17:22:03.916Z,99.90
2022-10-09T17:27:09.906Z,99.90
2022-10-09T17:32:13.195Z,99.90
2022-10-09T17:37:17.822Z,99.90
2022-10-09T17:42:21.141Z,99.90
2022-10-09T17:47:26.344Z,99.90
2022-10-09T17:52:31.026Z,99.90
2022-10-09T17:57:34.373Z,99.90
2022-10-09T18:02:37.637Z,99.90
2022-10-09T18:07:42.269Z,99.90
2022-10-09T18:12:45.554Z,99.90
2022-10-09T18:17:49.487Z,99.90
2022-10-09T18:22:54.308Z,99.90
2022-10-09T18:27:57.758Z,99.90
2022-10-09T18:33:01.068Z,99.90
2022-10-09T18:38:06.089Z,99.90
2022-10-09T18:43:09.839Z,99.90
2022-10-09T18:48:13.643Z,99.90
2022-10-09T18:53:18.421Z,99.90
2022-10-09T18:58:22.910Z,99.90
2022-10-09T19:03:26.247Z,99.90
2022-10-09T19:08:31.027Z,99.90
2022-10-09T19:13:34.553Z,99.90
2022-10-09T19:18:39.482Z,99.90
2022-10-09T19:23:44.373Z,99.90
2022-10-09T19:28:47.760Z,99.90
2022-10-09T19:33:51.051Z,99.90
2022-10-09T19:38:55.754Z,99.90
2022-10-09T19:44:00.331Z,99.90
2022-10-09T19:49:03.934Z,99.90
2022-10-09T19:54:09.906Z,99.90
2022-10-09T19:59:13.253Z,99.90
2022-10-09T20:04:17.212Z,99.90
2022-10-09T20:09:22.052Z,99.90
2022-10-09T20:14:25.344Z,99.90
2022-10-09T20:19:31.795Z,99.90
2022-10-09T20:24:36.665Z,99.90
2022-10-09T20:29:40.047Z,99.90
2022-10-09T20:34:43.485Z,99.90
2022-10-09T20:39:49.174Z,99.90
2022-10-09T20:44:52.453Z,99.90
2022-10-09T20:49:55.754Z,99.90
2022-10-09T20:55:00.399Z,99.90
2022-10-09T21:00:04.018Z,99.90
2022-10-09T21:05:08.292Z,99.90
2022-10-09T21:10:13.162Z,99.90
2022-10-09T21:15:16.414Z,99.90
2022-10-09T21:20:19.694Z,99.90
2022-10-09T21:25:24.396Z,99.90
2022-10-09T21:30:28.236Z,99.90
2022-10-09T21:35:31.567Z,99.90
2022-10-09T21:40:36.252Z,99.90
2022-10-09T21:45:40.386Z,99.90
2022-10-09T21:50:43.888Z,99.90
2022-10-09T21:55:48.496Z,99.90
2022-10-09T22:00:56.900Z,99.90
2022-10-09T22:06:00.585Z,99.90
2022-10-09T22:11:06.749Z,99.90
2022-10-09T22:16:11.979Z,99.90
2022-10-09T22:21:16.777Z,99.90
2022-10-09T22:26:23.224Z,99.90
2022-10-09T22:31:28.189Z,99.90
2022-10-09T22:36:33.755Z,99.90
2022-10-09T22:41:39.087Z,99.90
2022-10-09T22:46:44.483Z,99.90
2022-10-09T22:51:47.769Z,99.90
2022-10-09T22:56:52.440Z,99.90
2022-10-09T23:01:58.290Z,99.90
2022-10-09T23:07:01.983Z,99.90
2022-10-09T23:12:06.784Z,99.90
2022-10-09T23:17:10.059Z,99.90
2022-10-09T23:22:13.332Z,99.90
2022-10-09T23:27:17.977Z,99.90
2022-10-09T23:32:21.280Z,99.90
2022-10-09T23:37:24.621Z,99.90
2022-10-09T23:42:29.285Z,99.90
2022-10-09T23:47:32.594Z,99.90
2022-10-09T23:52:35.937Z,99.90
2022-10-09T23:57:40.625Z,99.90
